Time;durP1;ratioP1;P1;durP2;ratioP2;P2;SDS_P1;SDS_P2;PMS_P1;PMS_P2;Temp;Humidity;BMP_temperature;BMP_pressure;BME280_temperature;BME280_humidity;BME280_pressure;Samples;Min_cycle;Max_cycle;Signal;HPM_P1;HPM_P2
2023/04/30 00:00:55;;;;;;;16.13;11.93;;;307.80;2304.00;;;;;;5048772;28;20033;-60
2023/04/30 00:03:23;;;;;;;18.95;13.60;;;307.80;2304.00;;;;;;5048678;28;20024;-59
2023/04/30 00:05:51;;;;;;;14.45;11.80;;;307.80;2304.00;;;;;;5048713;28;20033;-58
2023/04/30 00:08:17;;;;;;;18.65;13.15;;;307.60;2304.00;;;;;;5048479;28;20040;-59
2023/04/30 00:10:43;;;;;;;20.10;13.75;;;307.40;2304.00;;;;;;5048960;28;20025;-60
2023/04/30 00:13:09;;;;;;;20.05;14.10;;;307.30;2304.00;;;;;;5048745;28;20530;-59
2023/04/30 00:15:35;;;;;;;18.38;14.23;;;307.20;2304.00;;;;;;5048455;28;20040;-58
2023/04/30 00:18:01;;;;;;;21.35;13.00;;;307.30;2304.00;;;;;;5048479;28;20075;-59
2023/04/30 00:20:27;;;;;;;14.52;11.35;;;307.20;2304.00;;;;;;5034338;28;20045;-60
2023/04/30 00:22:52;;;;;;;19.92;14.20;;;307.20;2304.00;;;;;;5048696;28;20498;-59
2023/04/30 00:25:19;;;;;;;19.98;12.20;;;282.50;2278.40;;;;;;5031187;28;20029;-58
2023/04/30 00:27:45;;;;;;;20.25;13.70;;;282.50;2278.40;;;;;;5028705;28;20040;-59
2023/04/30 00:30:11;;;;;;;12.75;10.55;;;282.50;2278.40;;;;;;5028171;28;20482;-59
2023/04/30 00:32:37;;;;;;;14.68;10.73;;;282.50;2278.40;;;;;;5029643;28;20022;-60
2023/04/30 00:35:03;;;;;;;14.32;10.95;;;307.20;2304.00;;;;;;5031817;28;20025;-60
2023/04/30 00:37:29;;;;;;;12.85;10.52;;;282.50;2278.40;;;;;;5032006;28;20431;-58
2023/04/30 00:39:55;;;;;;;16.27;11.02;;;282.40;2278.40;;;;;;5032037;28;20037;-57
2023/04/30 00:42:21;;;;;;;13.32;10.02;;;282.40;2278.40;;;;;;5031808;28;20447;-60
2023/04/30 00:44:46;;;;;;;15.93;10.43;;;282.30;2278.40;;;;;;5032263;28;20032;-58
2023/04/30 00:47:12;;;;;;;9.75;7.68;;;282.20;2278.40;;;;;;5032641;28;20352;-58
2023/04/30 00:49:38;;;;;;;10.88;8.40;;;282.30;2278.40;;;;;;5039475;28;20040;-58
2023/04/30 00:52:04;;;;;;;12.82;8.27;;;282.40;2278.40;;;;;;5049689;28;20095;-58
2023/04/30 00:54:29;;;;;;;13.57;8.05;;;282.40;2278.40;;;;;;5049577;28;20045;-57
2023/04/30 00:56:55;;;;;;;9.73;8.13;;;282.50;2278.40;;;;;;5050958;28;20074;-57
2023/04/30 00:59:21;;;;;;;11.45;8.13;;;282.50;2278.40;;;;;;5050024;28;20041;-58
2023/04/30 01:01:47;;;;;;;11.43;7.20;;;282.50;2278.40;;;;;;5050880;28;20021;-58
2023/04/30 01:04:13;;;;;;;12.23;8.52;;;307.20;2304.00;;;;;;5050634;28;20631;-61
2023/04/30 01:06:39;;;;;;;16.63;11.02;;;307.20;2304.00;;;;;;5050671;28;20036;-59
2023/04/30 01:09:05;;;;;;;11.52;9.40;;;282.50;2278.40;;;;;;5050644;28;20044;-58
2023/04/30 01:11:57;;;;;;;18.50;10.23;;;282.40;2278.40;;;;;;5050488;28;20040;-58
2023/04/30 01:14:46;;;;;;;13.27;9.30;;;282.40;2278.40;;;;;;5050321;28;20025;-60
2023/04/30 01:17:18;;;;;;;15.32;10.10;;;282.20;2278.40;;;;;;5050586;28;20025;-59
2023/04/30 01:19:45;;;;;;;13.25;9.48;;;282.20;2278.40;;;;;;5051178;28;20107;-60
2023/04/30 01:22:29;;;;;;;15.20;10.32;;;282.10;2278.40;;;;;;5051631;28;20112;-60
2023/04/30 01:25:10;;;;;;;15.13;9.95;;;282.20;2278.40;;;;;;5025172;28;20100;-58
2023/04/30 01:28:02;;;;;;;19.00;13.07;;;282.20;2278.40;;;;;;5051278;28;20475;-61
2023/04/30 01:30:30;;;;;;;18.20;13.85;;;282.20;2278.40;;;;;;5051308;28;20029;-59
2023/04/30 01:32:56;;;;;;;19.08;13.88;;;282.20;2278.40;;;;;;5051490;28;20027;-60
2023/04/30 01:35:42;;;;;;;34.90;22.50;;;282.20;2278.40;;;;;;5051023;28;20100;-59
2023/04/30 01:38:17;;;;;;;60.28;35.47;;;282.20;2278.40;;;;;;5051422;28;20118;-60
2023/04/30 01:40:52;;;;;;;45.97;30.02;;;282.20;2278.40;;;;;;5050473;28;20119;-59
2023/04/30 01:43:43;;;;;;;41.42;27.80;;;282.20;2278.40;;;;;;5050852;28;20033;-58
2023/04/30 01:46:26;;;;;;;28.33;21.30;;;282.20;2278.40;;;;;;5051211;28;20053;-60
2023/04/30 01:49:06;;;;;;;43.92;27.08;;;282.20;2278.40;;;;;;5050656;28;20017;-59
2023/04/30 01:51:40;;;;;;;37.40;24.17;;;282.20;2278.40;;;;;;5050710;28;20037;-58
2023/04/30 01:54:22;;;;;;;14.85;11.73;;;282.20;2278.40;;;;;;5024805;28;20174;-60
2023/04/30 01:57:06;;;;;;;18.80;14.73;;;282.20;2278.40;;;;;;5050691;28;20111;-60
2023/04/30 01:59:34;;;;;;;24.83;16.08;;;282.20;2278.40;;;;;;5050457;28;20041;-60
2023/04/30 02:02:00;;;;;;;29.50;20.17;;;282.20;2278.40;;;;;;5050737;28;20017;-59
2023/04/30 02:04:26;;;;;;;24.80;17.20;;;282.30;2278.40;;;;;;5050691;28;20032;-59
2023/04/30 02:06:52;;;;;;;24.90;16.10;;;282.30;2278.40;;;;;;5050498;28;20017;-59
2023/04/30 02:09:18;;;;;;;17.95;9.23;;;282.30;2278.40;;;;;;5050473;28;20352;-59
2023/04/30 02:11:43;;;;;;;29.63;17.95;;;282.30;2278.40;;;;;;5050108;28;20048;-59
2023/04/30 02:14:09;;;;;;;16.00;10.02;;;282.20;2278.40;;;;;;5050465;28;20108;-59
2023/04/30 02:16:35;;;;;;;18.67;9.07;;;282.30;2278.40;;;;;;5036706;28;20033;-59
2023/04/30 02:19:01;;;;;;;11.43;8.95;;;282.30;2278.40;;;;;;5050133;28;20028;-60
2023/04/30 02:21:27;;;;;;;12.82;8.18;;;282.30;2278.40;;;;;;5049892;28;20068;-59
2023/04/30 02:23:53;;;;;;;14.13;9.10;;;282.20;2278.40;;;;;;5050243;28;20060;-60
2023/04/30 02:26:20;;;;;;;12.07;8.90;;;282.20;2278.40;;;;;;5049981;28;20025;-60
2023/04/30 02:28:45;;;;;;;12.35;8.75;;;282.20;2278.40;;;;;;5049970;28;20025;-59
2023/04/30 02:31:11;;;;;;;10.85;8.02;;;282.20;2278.40;;;;;;5046096;28;20105;-59
2023/04/30 02:33:37;;;;;;;14.73;9.55;;;282.20;2278.40;;;;;;5040120;28;20025;-59
2023/04/30 02:36:03;;;;;;;11.23;9.45;;;282.20;2278.40;;;;;;5049825;28;20414;-59
2023/04/30 02:38:30;;;;;;;24.13;11.75;;;282.20;2278.40;;;;;;5050332;28;20056;-60
2023/04/30 02:40:56;;;;;;;27.42;18.90;;;282.10;2278.40;;;;;;5049406;28;20036;-59
2023/04/30 02:43:21;;;;;;;21.98;16.55;;;282.10;2278.40;;;;;;5039171;28;20017;-60
2023/04/30 02:45:47;;;;;;;22.85;15.38;;;282.10;2278.40;;;;;;5046550;28;20055;-59
2023/04/30 02:48:13;;;;;;;16.60;11.38;;;282.10;2278.40;;;;;;5049745;28;20078;-60
2023/04/30 02:50:38;;;;;;;28.17;19.50;;;282.00;2278.40;;;;;;5049536;28;20079;-59
2023/04/30 02:53:04;;;;;;;66.40;45.58;;;282.10;2278.40;;;;;;5049314;28;20110;-58
2023/04/30 02:55:30;;;;;;;26.50;21.58;;;282.10;2278.40;;;;;;5049179;28;20033;-59
2023/04/30 02:57:56;;;;;;;23.02;15.65;;;282.10;2278.40;;;;;;5050024;28;20037;-60
2023/04/30 03:00:22;;;;;;;11.82;10.02;;;282.10;2278.40;;;;;;5035617;28;20382;-59
2023/04/30 03:02:47;;;;;;;9.95;7.38;;;282.10;2278.40;;;;;;5049700;28;20395;-59
2023/04/30 03:05:14;;;;;;;10.63;7.40;;;282.20;2278.40;;;;;;5049188;28;20103;-59
2023/04/30 03:07:40;;;;;;;10.02;6.70;;;282.20;2278.40;;;;;;5049964;28;20025;-58
2023/04/30 03:10:07;;;;;;;11.40;7.63;;;282.20;2278.40;;;;;;5049560;28;20017;-60
2023/04/30 03:12:32;;;;;;;12.05;7.57;;;282.30;2278.40;;;;;;5047198;28;20040;-60
2023/04/30 03:14:58;;;;;;;11.65;7.93;;;282.40;2278.40;;;;;;5049424;28;20025;-59
2023/04/30 03:17:24;;;;;;;11.75;8.20;;;282.40;2278.40;;;;;;5048854;28;20060;-59
2023/04/30 03:19:50;;;;;;;7.88;6.68;;;282.50;2278.40;;;;;;5049085;28;20036;-59
2023/04/30 03:22:18;;;;;;;8.48;6.30;;;282.50;2278.40;;;;;;5049370;28;20029;-60
2023/04/30 03:24:44;;;;;;;9.57;6.32;;;307.20;2304.00;;;;;;5048694;28;20018;-59
2023/04/30 03:27:10;;;;;;;21.00;10.95;;;307.30;2304.00;;;;;;5049441;28;20537;-59
2023/04/30 03:29:36;;;;;;;13.98;10.65;;;282.30;2278.40;;;;;;5048968;28;20056;-60
2023/04/30 03:32:02;;;;;;;12.95;10.63;;;282.20;2278.40;;;;;;5049398;28;20033;-59
2023/04/30 03:34:27;;;;;;;18.52;11.40;;;282.20;2278.40;;;;;;5048908;28;20388;-59
2023/04/30 03:36:53;;;;;;;14.93;10.40;;;282.30;2278.40;;;;;;5048794;28;20423;-58
2023/04/30 03:39:18;;;;;;;15.38;10.13;;;282.40;2278.40;;;;;;5048991;28;20356;-58
2023/04/30 03:41:44;;;;;;;12.20;9.52;;;282.50;2278.40;;;;;;5048681;28;20029;-59
2023/04/30 03:44:14;;;;;;;14.07;8.57;;;282.50;2278.40;;;;;;5048820;28;20048;-59
2023/04/30 03:46:42;;;;;;;15.02;10.10;;;282.50;2278.40;;;;;;5049392;28;20033;-58
2023/04/30 03:49:08;;;;;;;14.80;10.32;;;307.20;2304.00;;;;;;5049061;28;20025;-59
2023/04/30 03:51:38;;;;;;;17.00;12.63;;;307.20;2304.00;;;;;;5048749;28;20039;-58
2023/04/30 03:54:05;;;;;;;19.67;15.40;;;282.50;2278.40;;;;;;5048630;28;20053;-59
2023/04/30 03:56:32;;;;;;;15.30;11.35;;;282.40;2278.40;;;;;;5048826;28;20116;-58
2023/04/30 03:58:57;;;;;;;14.63;9.50;;;282.50;2278.40;;;;;;5048785;28;20402;-59
2023/04/30 04:01:23;;;;;;;11.73;10.10;;;307.20;2304.00;;;;;;5048713;28;20033;-59
2023/04/30 04:03:49;;;;;;;14.82;10.25;;;307.20;2304.00;;;;;;5048761;28;20059;-59
2023/04/30 04:06:15;;;;;;;36.92;26.30;;;307.20;2304.00;;;;;;5048534;28;20025;-59
2023/04/30 04:08:43;;;;;;;39.92;25.48;;;307.20;2304.00;;;;;;5051600;28;20051;-59
2023/04/30 04:11:10;;;;;;;14.85;10.77;;;307.30;2304.00;;;;;;5052827;28;20032;-59
2023/04/30 04:13:36;;;;;;;15.63;10.80;;;307.40;2304.00;;;;;;5052303;28;20025;-60
2023/04/30 04:16:01;;;;;;;18.00;13.02;;;307.50;2304.00;;;;;;5040544;28;20017;-59
2023/04/30 04:18:27;;;;;;;21.75;14.07;;;307.50;2304.00;;;;;;5051534;28;20510;-58
2023/04/30 04:20:55;;;;;;;20.63;13.65;;;307.70;2304.00;;;;;;5051944;28;20167;-59
2023/04/30 04:23:20;;;;;;;25.13;17.42;;;307.80;2304.00;;;;;;5052339;28;20028;-60
2023/04/30 04:25:48;;;;;;;22.95;14.55;;;307.90;2304.00;;;;;;5052499;28;20115;-59
2023/04/30 04:28:15;;;;;;;17.67;11.85;;;308.10;2304.00;;;;;;5052145;28;20110;-60
2023/04/30 04:30:41;;;;;;;13.52;10.00;;;332.90;2329.60;;;;;;5052358;28;20023;-60
2023/04/30 04:33:07;;;;;;;16.90;10.38;;;333.00;2329.60;;;;;;5052109;28;20021;-59
2023/04/30 04:35:33;;;;;;;12.02;9.15;;;333.20;2329.60;;;;;;5052039;28;20036;-60
2023/04/30 04:37:59;;;;;;;9.73;6.45;;;333.40;2329.60;;;;;;5039218;28;20013;-59
2023/04/30 04:40:25;;;;;;;10.32;6.85;;;333.60;2329.60;;;;;;5052165;28;20037;-58
2023/04/30 04:42:51;;;;;;;13.98;7.32;;;358.40;2329.60;;;;;;5051854;28;20052;-59
2023/04/30 04:45:16;;;;;;;10.00;7.18;;;358.40;2329.60;;;;;;5052142;28;20108;-59
2023/04/30 04:47:42;;;;;;;10.85;7.03;;;358.40;2329.60;;;;;;5052189;28;20021;-59
2023/04/30 04:50:08;;;;;;;8.15;6.28;;;358.60;2329.60;;;;;;5051980;28;20037;-59
2023/04/30 04:52:34;;;;;;;11.60;7.68;;;358.90;2329.60;;;;;;5051618;28;20140;-58
2023/04/30 04:55:00;;;;;;;9.45;7.07;;;359.30;2329.60;;;;;;5052123;28;20055;-60
2023/04/30 04:57:26;;;;;;;10.55;7.40;;;359.00;2329.60;;;;;;5051706;28;20468;-58
2023/04/30 04:59:52;;;;;;;9.55;6.63;;;359.10;2329.60;;;;;;5051550;28;20120;-59
2023/04/30 05:02:17;;;;;;;9.48;6.63;;;359.20;2329.60;;;;;;5051310;28;20021;-59
2023/04/30 05:04:45;;;;;;;11.30;7.35;;;384.00;2329.60;;;;;;5051243;28;20071;-60
2023/04/30 05:07:11;;;;;;;10.02;6.70;;;384.70;2329.60;;;;;;5045609;28;20025;-59
2023/04/30 05:09:37;;;;;;;12.20;7.15;;;435.80;2355.20;;;;;;5044408;28;20352;-60
2023/04/30 05:12:03;;;;;;;8.80;6.88;;;436.10;2355.20;;;;;;5051662;28;20028;-60
2023/04/30 05:14:28;;;;;;;13.50;7.72;;;461.00;2380.80;;;;;;5051437;28;20021;-59
2023/04/30 05:16:54;;;;;;;10.38;6.97;;;487.30;2201.60;;;;;;5051281;28;20100;-60
2023/04/30 05:19:21;;;;;;;9.18;6.35;;;487.20;2201.60;;;;;;5050782;28;20104;-59
2023/04/30 05:21:46;;;;;;;12.80;8.52;;;486.60;2252.80;;;;;;5051440;28;20104;-59
2023/04/30 05:24:12;;;;;;;17.77;8.18;;;461.30;2329.60;;;;;;5051301;28;20104;-59
2023/04/30 05:26:38;;;;;;;15.65;8.15;;;461.20;2380.80;;;;;;5050800;28;20029;-59
2023/04/30 05:29:03;;;;;;;14.00;8.27;;;460.80;2380.80;;;;;;5051234;28;20540;-61
2023/04/30 05:31:31;;;;;;;11.93;7.80;;;436.10;2355.20;;;;;;5050611;28;20025;-59
2023/04/30 05:33:56;;;;;;;12.18;7.30;;;460.80;2380.80;;;;;;5051530;28;20028;-60
2023/04/30 05:36:22;;;;;;;10.55;6.78;;;435.90;2355.20;;;;;;5049112;28;20112;-59
2023/04/30 05:38:48;;;;;;;11.82;7.72;;;435.90;2355.20;;;;;;5051297;28;20029;-59
2023/04/30 05:41:13;;;;;;;11.25;7.60;;;435.70;2355.20;;;;;;5050504;28;20091;-60
2023/04/30 05:43:39;;;;;;;13.35;7.05;;;435.90;2355.20;;;;;;5051508;28;20538;-60
2023/04/30 05:46:05;;;;;;;10.40;6.60;;;460.90;2380.80;;;;;;5050444;28;20040;-60
2023/04/30 05:48:30;;;;;;;14.45;7.55;;;461.20;2380.80;;;;;;5051287;28;20029;-60
2023/04/30 05:50:56;;;;;;;10.95;7.50;;;461.50;2380.80;;;;;;5050546;28;20036;-60
2023/04/30 05:53:22;;;;;;;11.82;7.57;;;486.50;2355.20;;;;;;5050451;28;20558;-61
2023/04/30 05:55:47;;;;;;;23.02;14.63;;;512.90;2124.80;;;;;;5050633;28;20486;-59
2023/04/30 05:58:14;;;;;;;24.85;16.98;;;640.40;1766.40;;;;;;5050480;28;20025;-59
2023/04/30 06:00:39;;;;;;;11.50;7.68;;;716.80;1561.60;;;;;;5050587;28;20072;-61
2023/04/30 06:03:06;;;;;;;13.15;8.77;;;665.90;1638.40;;;;;;5050658;28;20052;-59
2023/04/30 06:05:32;;;;;;;9.93;7.45;;;640.00;1715.20;;;;;;5049909;28;20475;-60
2023/04/30 06:07:57;;;;;;;9.27;6.63;;;615.20;1715.20;;;;;;5050858;28;20025;-60
2023/04/30 06:10:23;;;;;;;11.13;8.57;;;665.70;1664.00;;;;;;5050086;28;20024;-59
2023/04/30 06:12:49;;;;;;;10.40;7.75;;;640.90;1638.40;;;;;;5050494;28;20151;-59
2023/04/30 06:15:15;;;;;;;10.23;8.23;;;666.20;1612.80;;;;;;5049968;28;20021;-60
2023/04/30 06:17:41;;;;;;;9.35;7.93;;;742.60;1510.40;;;;;;5050867;28;20032;-60
2023/04/30 06:20:07;;;;;;;11.88;9.10;;;768.10;1433.60;;;;;;5050097;28;20041;-59
2023/04/30 06:22:33;;;;;;;9.60;8.13;;;819.70;1331.20;;;;;;5050235;28;20031;-60
2023/04/30 06:24:59;;;;;;;7.90;7.07;;;820.00;1305.60;;;;;;5037204;28;20025;-60
2023/04/30 06:27:27;;;;;;;12.38;8.82;;;794.30;1356.80;;;;;;5050146;28;20428;-60
2023/04/30 06:29:53;;;;;;;10.68;8.32;;;819.40;1331.20;;;;;;5049302;28;20032;-60
2023/04/30 06:32:19;;;;;;;10.32;9.40;;;870.80;1228.80;;;;;;5049510;28;20033;-60
2023/04/30 06:34:46;;;;;;;10.40;9.35;;;;;;;;;;5049505;28;20108;-61
2023/04/30 06:37:11;;;;;;;10.52;9.50;;;871.10;1203.20;;;;;;5049956;28;20021;-61
2023/04/30 06:39:37;;;;;;;9.13;8.25;;;;;;;;;;5023867;28;20032;-61
2023/04/30 06:42:03;;;;;;;9.38;8.45;;;921.70;1177.60;;;;;;5049843;28;20375;-61
2023/04/30 06:44:29;;;;;;;10.52;9.57;;;947.60;1126.40;;;;;;5049519;28;20017;-60
2023/04/30 06:46:55;;;;;;;11.15;9.93;;;;;;;;;;5049178;28;20033;-62
2023/04/30 06:49:21;;;;;;;10.20;9.20;;;947.50;1100.80;;;;;;5049259;28;20546;-61
2023/04/30 06:51:47;;;;;;;10.10;9.25;;;948.00;1075.20;;;;;;5050136;28;20120;-61
2023/04/30 06:54:13;;;;;;;9.80;8.88;;;972.90;1075.20;;;;;;5048981;28;20052;-60
2023/04/30 06:56:39;;;;;;;10.20;9.20;;;972.80;1075.20;;;;;;5050036;28;20025;-61
2023/04/30 06:59:04;;;;;;;10.82;8.40;;;998.50;1049.60;;;;;;5049068;28;20438;-61
2023/04/30 07:01:30;;;;;;;9.27;8.40;;;973.20;1024.00;;;;;;5049616;28;20029;-63
2023/04/30 07:03:56;;;;;;;10.27;9.38;;;998.60;1024.00;;;;;;5049036;28;20044;-61
2023/04/30 07:06:21;;;;;;;11.63;10.15;;;1024.00;998.40;;;;;;5047722;28;20086;-62
2023/04/30 07:08:47;;;;;;;11.30;10.23;;;999.30;1024.00;;;;;;5049436;28;20044;-62
2023/04/30 07:11:13;;;;;;;10.75;9.75;;;998.50;1049.60;;;;;;5049774;28;20028;-62
2023/04/30 07:13:39;;;;;;;10.77;9.55;;;973.50;1049.60;;;;;;5049250;28;20070;-63
2023/04/30 07:16:05;;;;;;;9.20;8.40;;;999.00;1024.00;;;;;;5049364;28;20116;-61
2023/04/30 07:18:31;;;;;;;9.90;9.05;;;947.30;1075.20;;;;;;5049031;28;20487;-61
2023/04/30 07:20:56;;;;;;;9.80;8.80;;;998.40;1049.60;;;;;;5049308;28;20102;-62
2023/04/30 07:23:22;;;;;;;10.52;7.38;;;;;;;;;;5043201;28;20026;-61
2023/04/30 07:25:48;;;;;;;9.43;8.43;;;999.10;998.40;;;;;;5042602;28;20025;-62
2023/04/30 07:28:14;;;;;;;8.25;7.45;;;870.50;1152.00;;;;;;5049132;28;20086;-61
2023/04/30 07:30:40;;;;;;;10.50;7.43;;;794.00;1280.00;;;;;;5049311;28;20032;-60
2023/04/30 07:33:07;;;;;;;11.13;8.20;;;743.10;1331.20;;;;;;5049075;28;20005;-60
2023/04/30 07:35:32;;;;;;;8.55;7.65;;;717.50;1382.40;;;;;;5041564;28;20079;-59
2023/04/30 07:37:58;;;;;;;13.10;8.18;;;716.90;1408.00;;;;;;5044098;28;20021;-61
2023/04/30 07:40:24;;;;;;;9.32;7.65;;;692.00;1408.00;;;;;;5048441;28;20040;-59
2023/04/30 07:42:49;;;;;;;10.18;8.10;;;691.30;1433.60;;;;;;5054136;28;20406;-59
2023/04/30 07:45:15;;;;;;;9.00;7.55;;;666.20;1484.80;;;;;;5055733;28;20078;-59
2023/04/30 07:47:41;;;;;;;7.70;6.90;;;666.20;1484.80;;;;;;5054981;28;20154;-59
2023/04/30 07:50:07;;;;;;;8.65;7.10;;;665.90;1536.00;;;;;;5055273;28;20024;-60
2023/04/30 07:52:32;;;;;;;9.13;7.15;;;666.00;1510.40;;;;;;5055299;28;20416;-60
2023/04/30 07:54:58;;;;;;;10.88;7.15;;;665.80;1536.00;;;;;;5055622;28;20083;-60
2023/04/30 07:57:25;;;;;;;11.65;7.05;;;640.90;1536.00;;;;;;5054002;28;20021;-60
2023/04/30 07:59:52;;;;;;;13.93;6.97;;;666.00;1536.00;;;;;;5055391;28;20059;-59
2023/04/30 08:02:18;;;;;;;8.52;7.07;;;691.20;1510.40;;;;;;5055471;28;20489;-60
2023/04/30 08:04:44;;;;;;;8.13;7.20;;;691.60;1484.80;;;;;;5055006;28;20049;-59
2023/04/30 08:07:10;;;;;;;9.30;6.97;;;716.90;1459.20;;;;;;5054667;28;20021;-60
2023/04/30 08:09:35;;;;;;;11.18;8.20;;;717.50;1459.20;;;;;;5055199;28;20025;-58
2023/04/30 08:12:03;;;;;;;8.20;7.15;;;742.60;1433.60;;;;;;5055437;28;20047;-60
2023/04/30 08:14:30;;;;;;;7.32;6.35;;;692.10;1433.60;;;;;;5055750;28;20039;-60
2023/04/30 08:16:58;;;;;;;9.68;6.55;;;691.20;1484.80;;;;;;5052872;28;20067;-60
2023/04/30 08:19:24;;;;;;;8.50;6.93;;;666.10;1536.00;;;;;;5053787;28;20025;-60
2023/04/30 08:21:49;;;;;;;7.72;7.03;;;666.20;1561.60;;;;;;5054856;28;20079;-62
2023/04/30 08:24:15;;;;;;;7.85;6.55;;;691.80;1484.80;;;;;;5055153;28;20032;-66
2023/04/30 08:26:41;;;;;;;7.70;6.78;;;717.00;1459.20;;;;;;5041621;28;20025;-61
2023/04/30 08:29:09;;;;;;;7.57;6.78;;;742.70;1408.00;;;;;;5055118;28;20025;-63
2023/04/30 08:31:35;;;;;;;7.28;6.55;;;716.80;1459.20;;;;;;5054940;28;20029;-64
2023/04/30 08:34:01;;;;;;;11.52;6.15;;;666.20;1536.00;;;;;;5055027;28;20086;-62
2023/04/30 08:36:26;;;;;;;6.57;5.88;;;666.20;1536.00;;;;;;5054837;28;20565;-63
2023/04/30 08:38:52;;;;;;;6.50;5.25;;;665.60;1561.60;;;;;;5055080;28;20544;-65
2023/04/30 08:41:23;;;;;;;7.43;6.20;;;640.90;1536.00;;;;;;5055615;28;20037;-65
2023/04/30 08:43:52;;;;;;;7.10;6.40;;;666.00;1587.20;;;;;;5052907;28;20036;-60
2023/04/30 08:46:19;;;;;;;7.90;6.32;;;665.90;1536.00;;;;;;5055437;28;20036;-65
2023/04/30 08:48:47;;;;;;;7.70;6.10;;;666.00;1484.80;;;;;;5055202;28;20462;-59
2023/04/30 08:51:13;;;;;;;7.38;6.05;;;665.90;1536.00;;;;;;5054695;28;20029;-65
2023/04/30 08:53:41;;;;;;;10.73;6.47;;;665.80;1510.40;;;;;;5052571;28;20067;-64
2023/04/30 08:56:10;;;;;;;9.70;6.38;;;665.80;1536.00;;;;;;5052018;28;20075;-63
2023/04/30 08:58:36;;;;;;;8.40;6.93;;;666.00;1536.00;;;;;;5051795;28;20065;-63
2023/04/30 09:01:06;;;;;;;8.43;6.57;;;665.90;1561.60;;;;;;5049117;28;20044;-64
2023/04/30 09:03:32;;;;;;;7.60;6.00;;;665.60;1561.60;;;;;;5039544;28;20041;-65
2023/04/30 09:05:58;;;;;;;10.48;6.43;;;640.70;1561.60;;;;;;5050194;28;20021;-65
2023/04/30 09:08:44;;;;;;;8.13;6.88;;;640.90;1561.60;;;;;;5051436;28;20032;-64
2023/04/30 09:11:30;;;;;;;7.13;6.30;;;665.80;1561.60;;;;;;5027502;28;20027;-64
2023/04/30 09:13:58;;;;;;;8.02;6.35;;;640.50;1561.60;;;;;;5051450;28;20028;-63
2023/04/30 09:16:25;;;;;;;7.03;5.18;;;640.90;1561.60;;;;;;5051622;28;20494;-61
2023/04/30 09:18:51;;;;;;;9.88;7.35;;;665.60;1587.20;;;;;;5051357;28;20227;-63
2023/04/30 09:21:38;;;;;;;6.82;6.18;;;665.70;1561.60;;;;;;5051124;28;20090;-64
2023/04/30 09:24:05;;;;;;;6.13;5.53;;;665.70;1561.60;;;;;;5044438;28;20022;-63
2023/04/30 09:26:37;;;;;;;7.20;6.28;;;665.70;1587.20;;;;;;5044988;28;20037;-64
2023/04/30 09:29:07;;;;;;;13.32;6.78;;;665.70;1612.80;;;;;;5045631;28;20510;-63
2023/04/30 09:31:34;;;;;;;8.50;6.47;;;665.70;1587.20;;;;;;5031974;28;20383;-63
2023/04/30 09:34:00;;;;;;;7.97;6.45;;;665.70;1587.20;;;;;;5035006;28;20018;-64
2023/04/30 09:36:26;;;;;;;7.00;6.00;;;665.70;1587.20;;;;;;5037150;28;20029;-61
2023/04/30 09:38:52;;;;;;;9.10;6.68;;;640.90;1587.20;;;;;;5050864;28;20392;-64
2023/04/30 09:41:22;;;;;;;10.40;7.25;;;640.70;1587.20;;;;;;5051146;28;20075;-61
2023/04/30 09:43:48;;;;;;;9.57;6.68;;;640.80;1612.80;;;;;;5051050;28;20025;-64
2023/04/30 09:46:14;;;;;;;7.75;6.43;;;640.80;1587.20;;;;;;5051019;28;20415;-64
2023/04/30 09:48:43;;;;;;;9.85;6.30;;;640.60;1638.40;;;;;;5050920;28;20399;-62
2023/04/30 09:51:09;;;;;;;12.98;6.30;;;640.90;1587.20;;;;;;5024992;28;20391;-62
2023/04/30 09:53:41;;;;;;;8.20;6.05;;;665.60;1638.40;;;;;;5050282;28;20045;-62
2023/04/30 09:56:08;;;;;;;8.60;6.47;;;666.00;1612.80;;;;;;5050791;28;20028;-65
2023/04/30 09:58:38;;;;;;;6.97;6.00;;;666.00;1587.20;;;;;;5050758;28;20594;-65
2023/04/30 10:01:10;;;;;;;8.23;6.03;;;640.70;1638.40;;;;;;5050674;28;20045;-62
2023/04/30 10:03:40;;;;;;;7.13;5.75;;;640.60;1612.80;;;;;;5037070;28;20045;-61
2023/04/30 10:06:06;;;;;;;8.57;6.00;;;640.40;1638.40;;;;;;5048974;28;20028;-62
2023/04/30 10:08:55;;;;;;;9.57;6.65;;;640.30;1638.40;;;;;;5050238;28;20024;-64
2023/04/30 10:11:26;;;;;;;7.70;6.18;;;640.50;1612.80;;;;;;5050342;28;20106;-63
2023/04/30 10:14:12;;;;;;;8.65;6.28;;;640.40;1612.80;;;;;;5050837;28;20025;-61
2023/04/30 10:16:56;;;;;;;8.90;6.00;;;640.50;1612.80;;;;;;5050395;28;20028;-64
2023/04/30 10:19:24;;;;;;;7.85;5.50;;;640.60;1612.80;;;;;;5049657;28;20018;-64
2023/04/30 10:21:51;;;;;;;6.75;5.65;;;665.60;1612.80;;;;;;5050219;28;20044;-65
2023/04/30 10:24:18;;;;;;;7.50;6.03;;;665.70;1561.60;;;;;;5050336;28;20460;-66
2023/04/30 10:26:46;;;;;;;11.02;5.93;;;640.70;1561.60;;;;;;5023984;28;20029;-62
2023/04/30 10:29:16;;;;;;;8.00;5.15;;;640.40;1612.80;;;;;;5036432;28;20487;-62
2023/04/30 10:31:45;;;;;;;6.25;5.38;;;640.60;1561.60;;;;;;5037288;28;20028;-61
2023/04/30 10:34:11;;;;;;;6.80;5.25;;;640.40;1587.20;;;;;;5050285;28;20025;-63
2023/04/30 10:36:43;;;;;;;9.43;6.22;;;640.30;1587.20;;;;;;5049859;28;20020;-60
2023/04/30 10:39:11;;;;;;;7.82;5.22;;;640.00;1587.20;;;;;;5049715;28;20031;-63
2023/04/30 10:41:37;;;;;;;6.05;5.45;;;640.00;1561.60;;;;;;5050321;28;20658;-63
2023/04/30 10:44:06;;;;;;;6.35;5.75;;;615.30;1587.20;;;;;;5049425;28;20061;-64
2023/04/30 10:46:34;;;;;;;6.97;5.97;;;615.00;1638.40;;;;;;5043130;28;20025;-65
2023/04/30 10:49:00;;;;;;;8.75;6.18;;;614.60;1664.00;;;;;;5029490;28;20494;-62
2023/04/30 10:51:47;;;;;;;8.25;5.57;;;589.70;1689.60;;;;;;5029144;28;20082;-65
2023/04/30 10:54:21;;;;;;;5.70;4.32;;;589.40;1715.20;;;;;;5029092;28;20041;-66
2023/04/30 10:56:47;;;;;;;7.72;5.32;;;589.30;1664.00;;;;;;5029382;28;20029;-66
2023/04/30 10:59:13;;;;;;;7.28;6.18;;;589.30;1689.60;;;;;;5036044;28;20025;-63
2023/04/30 11:02:00;;;;;;;8.48;7.60;;;589.10;1689.60;;;;;;5032521;28;20060;-64
2023/04/30 11:04:27;;;;;;;8.02;7.22;;;588.90;1843.20;;;;;;5033176;28;20024;-65
2023/04/30 11:06:55;;;;;;;8.98;8.07;;;564.10;1843.20;;;;;;5049275;28;20039;-65
2023/04/30 11:09:38;;;;;;;9.35;7.90;;;588.90;1868.80;;;;;;5049456;28;20029;-61
2023/04/30 11:12:13;;;;;;;7.47;6.72;;;589.20;1868.80;;;;;;5049770;28;20033;-64
2023/04/30 11:14:44;;;;;;;8.15;7.38;;;589.30;1817.60;;;;;;5049720;28;20033;-67
2023/04/30 11:17:12;;;;;;;7.43;6.68;;;589.60;1792.00;;;;;;5048877;28;20431;-63
2023/04/30 11:19:48;;;;;;;7.60;6.90;;;589.70;1766.40;;;;;;5048982;28;20037;-65
2023/04/30 11:22:16;;;;;;;7.78;6.30;;;589.70;1766.40;;;;;;5049151;28;20116;-60
2023/04/30 11:24:57;;;;;;;6.97;5.72;;;614.50;1766.40;;;;;;5049246;28;20040;-64
2023/04/30 11:27:25;;;;;;;7.32;6.50;;;589.70;1740.80;;;;;;5049045;28;20040;-66
2023/04/30 11:29:52;;;;;;;6.35;5.75;;;589.50;1792.00;;;;;;5049176;28;20036;-64
2023/04/30 11:32:19;;;;;;;7.65;6.03;;;589.10;1792.00;;;;;;5049170;28;20013;-63
2023/04/30 11:34:45;;;;;;;6.55;5.95;;;589.00;1740.80;;;;;;5048560;28;20025;-65
2023/04/30 11:37:42;;;;;;;6.82;5.80;;;588.80;1766.40;;;;;;5049268;28;20021;-63
2023/04/30 11:40:10;;;;;;;7.03;5.70;;;564.10;1766.40;;;;;;4967917;28;20053;-66
2023/04/30 11:42:40;;;;;;;7.45;6.18;;;589.00;1766.40;;;;;;4967868;28;20373;-64
2023/04/30 11:45:16;;;;;;;6.90;6.20;;;589.50;1792.00;;;;;;4967344;28;20628;-65
2023/04/30 11:47:43;;;;;;;8.05;6.15;;;589.70;1740.80;;;;;;4968104;28;20042;-64
2023/04/30 11:50:10;;;;;;;6.88;4.65;;;614.80;1689.60;;;;;;4967614;28;20038;-64
2023/04/30 11:52:37;;;;;;;6.60;4.25;;;614.50;1664.00;;;;;;4967308;28;20046;-64
2023/04/30 11:55:15;;;;;;;5.88;4.88;;;615.00;1664.00;;;;;;4967746;28;20098;-63
2023/04/30 11:57:46;;;;;;;7.45;5.78;;;615.00;1638.40;;;;;;4967029;28;20062;-62
2023/04/30 12:00:13;;;;;;;5.53;4.95;;;614.80;1664.00;;;;;;4963657;28;20066;-63
2023/04/30 12:02:39;;;;;;;6.60;5.45;;;589.70;1689.60;;;;;;4966326;28;20034;-64
2023/04/30 12:05:14;;;;;;;5.72;5.22;;;589.00;1740.80;;;;;;4965766;28;20022;-65
2023/04/30 12:07:54;;;;;;;6.00;5.30;;;564.10;1766.40;;;;;;4946862;28;20620;-64
2023/04/30 12:10:21;;;;;;;6.32;5.47;;;564.10;1792.00;;;;;;4963261;28;20038;-65
2023/04/30 12:12:50;;;;;;;7.03;5.53;;;564.10;1766.40;;;;;;4966303;28;20034;-65
2023/04/30 12:15:17;;;;;;;6.80;6.10;;;588.90;1715.20;;;;;;4965009;28;20102;-64